Time;durP1;ratioP1;P1;durP2;ratioP2;P2;SDS_P1;SDS_P2;PMS_P1;PMS_P2;Temp;Humidity;BMP_temperature;BMP_pressure;BME280_temperature;BME280_humidity;BME280_pressure;Samples;Min_cycle;Max_cycle;Signal;HPM_P1;HPM_P2
2021/09/12 00:02:23;;;;;;;27.80;21.63;;;;;;;15.78;100.00;100901.25;5014495;28;20056;-72
2021/09/12 00:04:50;;;;;;;25.20;22.27;;;;;;;15.77;100.00;100904.88;5043116;28;20168;-73
2021/09/12 00:07:17;;;;;;;34.42;26.98;;;;;;;15.83;100.00;100899.09;5031602;28;20152;-72
2021/09/12 00:09:44;;;;;;;26.90;22.92;;;;;;;15.95;100.00;100904.31;5009109;28;20151;-72
2021/09/12 00:12:11;;;;;;;27.45;23.02;;;;;;;16.00;100.00;100903.94;5022777;28;20076;-72
2021/09/12 00:14:39;;;;;;;31.23;24.90;;;;;;;16.04;100.00;100899.25;5051308;28;20057;-72
2021/09/12 00:17:06;;;;;;;29.52;23.90;;;;;;;16.01;100.00;100905.63;5052073;28;20076;-73
2021/09/12 00:19:33;;;;;;;32.88;26.05;;;;;;;15.89;100.00;100893.28;5031190;28;20128;-72
2021/09/12 00:22:01;;;;;;;31.05;26.10;;;;;;;15.75;100.00;100894.34;5020078;28;20767;-73
2021/09/12 00:24:28;;;;;;;31.63;25.05;;;;;;;15.87;100.00;100896.06;5029686;28;20479;-73
2021/09/12 00:26:55;;;;;;;36.55;28.38;;;;;;;15.68;100.00;100895.81;5008805;28;20047;-73
2021/09/12 00:29:22;;;;;;;30.73;26.95;;;;;;;15.67;100.00;100892.31;5045467;28;20418;-73
2021/09/12 00:31:49;;;;;;;31.13;25.83;;;;;;;15.59;100.00;100891.16;5053529;28;20049;-72
2021/09/12 00:34:16;;;;;;;39.75;26.75;;;;;;;15.52;100.00;100890.75;5043199;28;20057;-73
2021/09/12 00:36:44;;;;;;;42.72;28.88;;;;;;;15.48;100.00;100888.44;5028823;28;20065;-73
2021/09/12 00:39:12;;;;;;;39.65;27.58;;;;;;;15.45;100.00;100889.56;5042974;28;20059;-72
2021/09/12 00:41:40;;;;;;;38.55;29.38;;;;;;;15.42;100.00;100887.97;5012172;28;20146;-72
2021/09/12 00:44:09;;;;;;;37.60;28.55;;;;;;;15.52;100.00;100892.56;5013823;28;20065;-71
2021/09/12 00:46:40;;;;;;;39.95;30.67;;;;;;;15.49;100.00;100880.41;5045929;28;20115;-71
2021/09/12 00:49:08;;;;;;;37.70;29.60;;;;;;;15.44;100.00;100888.72;5042932;28;20138;-72
2021/09/12 00:51:36;;;;;;;37.03;29.77;;;;;;;15.37;100.00;100884.81;5053150;28;20055;-70
2021/09/12 00:54:05;;;;;;;38.35;30.58;;;;;;;15.38;100.00;100883.00;5028868;28;20075;-72
2021/09/12 00:56:35;;;;;;;38.80;28.92;;;;;;;15.57;100.00;100885.94;5028019;28;20073;-72
2021/09/12 00:59:04;;;;;;;39.47;29.83;;;;;;;15.57;100.00;100883.28;5025571;28;20041;-73
2021/09/12 01:01:33;;;;;;;40.17;31.50;;;;;;;15.45;100.00;100887.75;5016237;28;20045;-72
2021/09/12 01:04:00;;;;;;;38.20;30.00;;;;;;;15.39;100.00;100890.81;5013162;28;20103;-73
2021/09/12 01:06:29;;;;;;;43.83;30.98;;;;;;;15.40;100.00;100891.66;5030014;28;20063;-72
2021/09/12 01:08:56;;;;;;;37.85;30.42;;;;;;;15.42;100.00;100893.25;5053625;28;20048;-74
2021/09/12 01:11:23;;;;;;;42.08;30.55;;;;;;;15.30;100.00;100890.69;5027524;28;20078;-73
2021/09/12 01:13:50;;;;;;;49.58;31.83;;;;;;;15.38;100.00;100883.00;5033478;28;20073;-72
2021/09/12 01:16:19;;;;;;;42.53;31.65;;;;;;;15.24;100.00;100888.50;5030953;28;20579;-72
2021/09/12 01:18:47;;;;;;;42.78;32.20;;;;;;;15.23;100.00;100889.47;5032369;28;20061;-72
2021/09/12 01:21:17;;;;;;;42.75;31.33;;;;;;;15.11;100.00;100883.25;5047927;28;20044;-72
2021/09/12 01:23:44;;;;;;;44.97;33.20;;;;;;;15.04;100.00;100882.88;5048254;28;20073;-72
2021/09/12 01:26:13;;;;;;;44.88;32.88;;;;;;;15.13;100.00;100884.84;5039437;28;20143;-72
2021/09/12 01:28:42;;;;;;;44.88;32.00;;;;;;;15.23;100.00;100879.69;5033413;28;20040;-71
2021/09/12 01:31:29;;;;;;;42.42;32.40;;;;;;;15.37;100.00;100886.63;5005644;28;20048;-72
2021/09/12 01:33:57;;;;;;;41.88;32.20;;;;;;;15.29;100.00;100873.91;5011291;28;20067;-73
2021/09/12 01:36:25;;;;;;;47.20;34.92;;;;;;;15.12;100.00;100884.94;5031375;28;20045;-73
2021/09/12 01:38:52;;;;;;;45.60;34.10;;;;;;;15.05;100.00;100879.25;5049518;28;20111;-71
2021/09/12 01:41:20;;;;;;;41.33;32.92;;;;;;;15.03;100.00;100870.53;5008842;28;20052;-73
2021/09/12 01:43:54;;;;;;;42.78;34.00;;;;;;;14.92;100.00;100868.69;5031164;28;20045;-71
2021/09/12 01:46:21;;;;;;;49.30;34.72;;;;;;;14.87;100.00;100872.63;5033689;28;20117;-73
2021/09/12 01:48:48;;;;;;;39.97;31.92;;;;;;;14.91;100.00;100876.75;5038087;28;20048;-72
2021/09/12 01:51:17;;;;;;;43.47;33.50;;;;;;;14.86;100.00;100878.88;5028957;28;20049;-73
2021/09/12 01:53:45;;;;;;;43.90;32.65;;;;;;;15.13;100.00;100884.84;5028762;28;20128;-73
2021/09/12 01:56:12;;;;;;;42.30;31.88;;;;;;;15.31;100.00;100889.72;5029784;28;20128;-73
2021/09/12 01:58:39;;;;;;;44.95;34.25;;;;;;;15.09;100.00;100883.38;5031448;28;20099;-73
2021/09/12 02:01:06;;;;;;;45.60;35.22;;;;;;;14.98;100.00;100885.09;5020071;28;20498;-74
2021/09/12 02:03:34;;;;;;;45.90;34.05;;;;;;;14.85;100.00;100878.03;5025127;28;20144;-73
2021/09/12 02:06:01;;;;;;;49.58;33.22;;;;;;;14.84;100.00;100872.84;5009087;28;20509;-72
2021/09/12 02:08:29;;;;;;;48.08;34.85;;;;;;;14.76;100.00;100869.91;5011007;28;20414;-73
2021/09/12 02:10:56;;;;;;;50.20;36.22;;;;;;;14.73;100.00;100875.44;5027754;28;20132;-72
2021/09/12 02:13:23;;;;;;;50.85;36.10;;;;;;;14.77;100.00;100875.13;5029725;28;20053;-73
2021/09/12 02:15:53;;;;;;;45.33;35.38;;;;;;;14.72;100.00;100876.38;5026832;28;20049;-73
2021/09/12 02:18:21;;;;;;;52.40;36.95;;;;;;;14.97;100.00;100881.59;5008224;28;20215;-73
2021/09/12 02:20:48;;;;;;;46.72;35.47;;;;;;;14.91;100.00;100874.97;5030173;28;20131;-73
2021/09/12 02:23:15;;;;;;;46.92;36.20;;;;;;;14.98;100.00;100877.16;5051412;28;20058;-72
2021/09/12 02:25:42;;;;;;;43.00;34.95;;;;;;;14.83;100.00;100882.63;5027638;28;20049;-73
2021/09/12 02:28:10;;;;;;;43.08;34.95;;;;;;;15.10;100.00;100890.34;5021772;28;20057;-73
2021/09/12 02:30:37;;;;;;;44.40;34.88;;;;;;;14.88;100.00;100883.13;5041541;28;20029;-72
2021/09/12 02:33:04;;;;;;;48.63;36.10;;;;;;;14.76;100.00;100876.06;5026248;28;20045;-72
2021/09/12 02:35:31;;;;;;;50.40;37.65;;;;;;;14.72;100.00;100879.88;5046403;28;20177;-72
2021/09/12 02:37:59;;;;;;;50.35;36.72;;;;;;;14.70;100.00;100868.56;5027113;28;20140;-71
2021/09/12 02:40:26;;;;;;;54.20;39.30;;;;;;;14.62;100.00;100873.56;5008955;28;20048;-72
2021/09/12 02:42:53;;;;;;;49.28;36.70;;;;;;;14.72;100.00;100871.94;5027209;28;20070;-71
2021/09/12 02:45:20;;;;;;;48.20;36.97;;;;;;;14.89;100.00;100868.91;5007360;28;20055;-73
2021/09/12 02:47:47;;;;;;;53.75;37.50;;;;;;;14.84;100.00;100868.41;5021473;28;20076;-72
2021/09/12 02:50:15;;;;;;;51.75;38.50;;;;;;;14.75;100.00;100877.00;5043676;28;20507;-73
2021/09/12 02:52:42;;;;;;;47.13;36.67;;;;;;;14.77;100.00;100879.53;5022078;28;20094;-71
2021/09/12 02:55:10;;;;;;;52.78;39.90;;;;;;;14.77;100.00;100877.78;5044906;28;20083;-71
2021/09/12 02:57:37;;;;;;;49.95;37.03;;;;;;;14.70;100.00;100881.81;4997772;28;20470;-72
2021/09/12 03:00:05;;;;;;;56.28;39.75;;;;;;;14.60;100.00;100872.84;5021830;28;20041;-74
2021/09/12 03:02:32;;;;;;;46.80;36.22;;;;;;;14.69;100.00;100875.66;5029263;28;20135;-72
2021/09/12 03:04:59;;;;;;;48.38;37.50;;;;;;;14.69;100.00;100870.38;5036916;28;20079;-73
2021/09/12 03:07:27;;;;;;;47.92;36.40;;;;;;;14.80;100.00;100868.72;5049654;28;20053;-73
2021/09/12 03:09:54;;;;;;;52.35;37.58;;;;;;;14.64;100.00;100879.59;5038907;28;20064;-72
2021/09/12 03:12:21;;;;;;;45.70;37.20;;;;;;;14.62;100.00;100871.75;5042872;28;20136;-74
2021/09/12 03:14:48;;;;;;;45.42;36.13;;;;;;;14.68;100.00;100873.13;4999068;28;20044;-72
2021/09/12 03:17:16;;;;;;;49.17;37.88;;;;;;;14.72;100.00;100871.09;5049412;28;20052;-73
2021/09/12 03:19:43;;;;;;;57.38;39.03;;;;;;;14.59;100.00;100874.63;5019889;28;20519;-72
2021/09/12 03:22:11;;;;;;;55.25;38.45;;;;;;;14.62;100.00;100870.91;5048772;28;20098;-74
2021/09/12 03:24:38;;;;;;;50.50;37.50;;;;;;;14.60;100.00;100871.03;5045337;28;20140;-72
2021/09/12 03:27:05;;;;;;;52.50;40.38;;;;;;;14.57;100.00;100865.94;5029682;28;20455;-72
2021/09/12 03:29:32;;;;;;;46.63;34.90;;;;;;;14.67;100.00;100864.31;5041627;28;20427;-72
2021/09/12 03:31:59;;;;;;;50.00;38.40;;;;;;;14.70;100.00;100871.22;5041530;28;20045;-72
2021/09/12 03:34:26;;;;;;;48.05;38.00;;;;;;;14.75;100.00;100862.94;5045719;28;20053;-73
2021/09/12 03:36:53;;;;;;;51.47;37.85;;;;;;;14.68;100.00;100863.38;5031226;28;20055;-72
2021/09/12 03:39:21;;;;;;;46.55;37.55;;;;;;;14.74;100.00;100862.09;5043498;28;20114;-72
2021/09/12 03:41:48;;;;;;;42.10;35.13;;;;;;;14.76;100.00;100865.44;5047546;28;20155;-71
2021/09/12 03:44:15;;;;;;;41.40;34.35;;;;;;;14.86;100.00;100868.28;5045980;28;20435;-71
2021/09/12 03:46:42;;;;;;;38.65;33.13;;;;;;;14.86;100.00;100863.84;5040359;28;20045;-72
2021/09/12 03:49:10;;;;;;;38.78;33.53;;;;;;;14.87;100.00;100865.53;5021906;28;20071;-73
2021/09/12 03:51:37;;;;;;;35.92;30.42;;;;;;;15.04;100.00;100868.72;5055417;28;20118;-73
2021/09/12 03:54:04;;;;;;;40.10;31.80;;;;;;;15.02;100.00;100868.84;5028887;28;20049;-73
2021/09/12 03:56:31;;;;;;;36.40;30.17;;;;;;;14.95;100.00;100867.63;5017107;28;20049;-72
2021/09/12 03:58:59;;;;;;;32.30;28.83;;;;;;;15.00;100.00;100865.47;5044872;28;20132;-73
2021/09/12 04:01:26;;;;;;;36.70;28.65;;;;;;;14.97;100.00;100863.06;5032911;28;20107;-73
2021/09/12 04:03:53;;;;;;;33.72;29.25;;;;;;;14.94;100.00;100864.09;5046241;28;20144;-72
2021/09/12 04:06:21;;;;;;;31.27;26.40;;;;;;;15.09;100.00;100862.16;5043783;28;20080;-72
2021/09/12 04:08:48;;;;;;;35.00;28.27;;;;;;;15.08;100.00;100860.44;5045226;28;20049;-72
2021/09/12 04:11:15;;;;;;;32.95;27.95;;;;;;;15.04;100.00;100868.72;5030497;28;20049;-73
2021/09/12 04:13:42;;;;;;;31.40;26.80;;;;;;;15.13;100.00;100866.28;5010358;28;20140;-74
2021/09/12 04:16:09;;;;;;;31.77;28.00;;;;;;;15.03;100.00;100864.41;5018280;28;20591;-74
2021/09/12 04:18:37;;;;;;;37.40;27.88;;;;;;;15.00;100.00;100857.53;5024419;28;20056;-70
2021/09/12 04:21:04;;;;;;;32.40;27.40;;;;;;;15.02;100.00;100847.66;5025670;28;20466;-68
2021/09/12 04:23:32;;;;;;;31.08;26.73;;;;;;;15.06;100.00;100848.28;5039729;28;20056;-69
2021/09/12 04:25:59;;;;;;;32.00;26.48;;;;;;;15.13;100.00;100847.72;5042021;28;20052;-69
2021/09/12 04:28:26;;;;;;;32.83;26.20;;;;;;;15.12;100.00;100846.00;5046744;28;20055;-72
2021/09/12 04:30:53;;;;;;;33.95;25.73;;;;;;;15.12;100.00;100851.31;5009960;28;20115;-72
2021/09/12 04:33:20;;;;;;;30.15;26.40;;;;;;;15.09;100.00;100850.72;5054416;28;20740;-72
2021/09/12 04:35:47;;;;;;;33.30;27.00;;;;;;;15.04;100.00;100853.69;5042176;28;20049;-71
2021/09/12 04:38:15;;;;;;;31.70;26.85;;;;;;;15.02;100.00;100852.94;5036906;28;20045;-69
2021/09/12 04:40:42;;;;;;;31.70;26.50;;;;;;;15.00;100.00;100851.38;5064273;28;20128;-69
2021/09/12 04:43:09;;;;;;;30.27;26.02;;;;;;;14.99;100.00;100850.50;5050088;28;20140;-71
2021/09/12 04:45:36;;;;;;;30.60;25.05;;;;;;;15.02;100.00;100857.41;5030449;28;20048;-70
2021/09/12 04:48:04;;;;;;;32.03;26.73;;;;;;;15.02;100.00;100854.75;5069053;28;20060;-71
2021/09/12 04:50:31;;;;;;;31.20;26.42;;;;;;;15.08;100.00;100857.78;5045312;28;20045;-70
2021/09/12 04:52:58;;;;;;;33.05;24.60;;;;;;;15.11;100.00;100857.56;5028002;28;20116;-67
2021/09/12 04:55:25;;;;;;;39.45;28.60;;;;;;;15.08;100.00;100859.59;5042400;28;20419;-66
2021/09/12 04:57:53;;;;;;;32.72;25.92;;;;;;;15.12;100.00;100861.91;5048179;28;20069;-66
2021/09/12 05:00:20;;;;;;;28.00;24.55;;;;;;;15.11;100.00;100870.81;5024534;28;20041;-67
2021/09/12 05:02:48;;;;;;;32.70;26.73;;;;;;;15.08;100.00;100880.81;5035345;28;20040;-65
2021/09/12 05:05:16;;;;;;;30.40;24.15;;;;;;;15.16;100.00;100867.84;5035075;28;20084;-67
2021/09/12 05:07:43;;;;;;;28.23;25.15;;;;;;;15.24;100.00;100869.94;5030753;28;20140;-65
2021/09/12 05:10:11;;;;;;;31.83;24.35;;;;;;;15.30;100.00;100874.75;5038485;28;20131;-66
2021/09/12 05:12:38;;;;;;;30.67;24.63;;;;;;;15.26;100.00;100873.28;5050587;28;20052;-66
2021/09/12 05:15:06;;;;;;;25.85;23.05;;;;;;;15.30;100.00;100874.75;5042453;28;20052;-67
2021/09/12 05:17:33;;;;;;;33.53;25.33;;;;;;;15.35;100.00;100876.09;5025827;28;20145;-67
2021/09/12 05:20:01;;;;;;;27.88;24.30;;;;;;;15.39;100.00;100874.91;5042417;28;20794;-66
2021/09/12 05:22:28;;;;;;;28.33;24.73;;;;;;;15.51;100.00;100878.47;5024123;28;20137;-67
2021/09/12 05:24:55;;;;;;;29.05;25.20;;;;;;;15.50;100.00;100875.94;5040633;28;20042;-68
2021/09/12 05:27:23;;;;;;;26.80;23.80;;;;;;;15.59;100.00;100880.53;5040651;28;20423;-66
2021/09/12 05:29:50;;;;;;;26.52;22.90;;;;;;;15.74;100.00;100876.75;5026835;28;20144;-66
2021/09/12 05:32:17;;;;;;;25.90;23.15;;;;;;;15.88;100.00;100881.84;5021965;28;20045;-67
2021/09/12 05:34:44;;;;;;;24.48;21.85;;;;;;;16.26;100.00;100874.53;5020783;28;20140;-66
2021/09/12 05:37:12;;;;;;;24.95;20.67;;;;;;;16.59;100.00;100870.97;5039785;28;20053;-67
2021/09/12 05:39:40;;;;;;;23.30;20.27;;;;;;;16.91;100.00;100869.25;5041102;28;20080;-67
2021/09/12 05:42:07;;;;;;;23.42;19.48;;;;;;;17.04;100.00;100874.41;5033718;28;20040;-67
2021/09/12 05:44:34;;;;;;;22.42;18.27;;;;;;;17.35;100.00;100880.72;5029880;28;20449;-67
2021/09/12 05:47:02;;;;;;;22.33;16.65;;;;;;;17.64;100.00;100877.41;5028375;28;21409;-67
2021/09/12 05:49:29;;;;;;;21.42;16.13;;;;;;;17.85;100.00;100885.44;5032118;28;20049;-66
2021/09/12 05:51:56;;;;;;;18.15;16.25;;;;;;;18.14;100.00;100873.09;5026972;28;20179;-67
2021/09/12 05:54:23;;;;;;;21.40;16.27;;;;;;;18.40;100.00;100877.97;5038735;28;20561;-67
2021/09/12 05:56:50;;;;;;;17.08;13.98;;;;;;;18.58;100.00;100880.84;5029002;28;20052;-67
2021/09/12 05:59:18;;;;;;;16.38;14.05;;;;;;;18.77;99.63;100877.41;5038445;28;20135;-67
2021/09/12 06:01:45;;;;;;;17.77;15.40;;;;;;;18.51;99.66;100877.91;5047114;28;20433;-67
2021/09/12 06:04:31;;;;;;;16.48;14.40;;;;;;;18.79;98.44;100878.97;5017215;28;20502;-68
2021/09/12 06:06:58;;;;;;;20.70;15.07;;;;;;;18.97;97.58;100872.00;5001029;28;20099;-67
2021/09/12 06:09:26;;;;;;;20.50;14.55;;;;;;;18.91;96.28;100882.34;5033645;28;21102;-67
2021/09/12 06:11:53;;;;;;;18.77;15.73;;;;;;;19.06;95.02;100880.16;5045238;28;20051;-67
2021/09/12 06:14:21;;;;;;;19.25;13.65;;;;;;;19.20;94.85;100885.06;5042936;28;20048;-67
2021/09/12 06:16:48;;;;;;;17.02;14.73;;;;;;;19.14;95.43;100880.31;5023247;28;20074;-68
2021/09/12 06:19:15;;;;;;;18.17;13.27;;;;;;;19.35;93.67;100883.66;5030249;28;20167;-67
2021/09/12 06:21:42;;;;;;;16.42;14.68;;;;;;;20.01;90.60;100885.56;5037826;28;20646;-67
2021/09/12 06:24:09;;;;;;;17.05;12.43;;;;;;;21.15;82.73;100878.94;5040332;28;20048;-67
2021/09/12 06:26:37;;;;;;;16.70;12.77;;;;;;;21.49;80.01;100880.97;5048033;28;20422;-68
2021/09/12 06:29:04;;;;;;;18.27;11.98;;;;;;;22.91;74.60;100879.56;5041925;28;20096;-68
2021/09/12 06:31:31;;;;;;;14.60;12.75;;;;;;;23.57;68.38;100885.00;5037699;28;20053;-68
2021/09/12 06:33:58;;;;;;;16.15;11.30;;;;;;;23.84;67.10;100891.91;5048292;28;20255;-66
2021/09/12 06:36:25;;;;;;;16.73;12.15;;;;;;;23.54;67.16;100888.03;5024237;28;20080;-68
2021/09/12 06:38:52;;;;;;;12.75;11.23;;;;;;;23.46;68.15;100896.91;5032808;28;20049;-69
2021/09/12 06:41:20;;;;;;;12.48;11.13;;;;;;;23.14;69.04;100897.72;5043916;28;20356;-68
2021/09/12 06:43:47;;;;;;;20.58;13.25;;;;;;;22.85;69.45;100901.66;5049180;28;20106;-67
2021/09/12 06:46:14;;;;;;;14.25;11.55;;;;;;;22.12;72.30;100898.69;5016268;28;20513;-66
2021/09/12 06:48:41;;;;;;;15.82;12.50;;;;;;;21.52;76.12;100902.06;5039420;28;20049;-67
2021/09/12 06:51:09;;;;;;;17.67;13.30;;;;;;;21.43;77.94;100908.34;5018855;28;20765;-66
2021/09/12 06:53:36;;;;;;;14.27;12.80;;;;;;;21.63;77.08;100909.03;5008013;28;20044;-67
2021/09/12 06:56:04;;;;;;;14.30;12.02;;;;;;;21.57;77.55;100907.81;5046102;28;20045;-67
2021/09/12 06:58:32;;;;;;;17.50;13.13;;;;;;;21.80;77.61;100910.00;5037913;28;20057;-67
2021/09/12 07:01:01;;;;;;;14.40;12.77;;;;;;;22.05;75.79;100911.81;5029699;28;20072;-67
2021/09/12 07:03:29;;;;;;;17.40;12.10;;;;;;;22.06;75.64;100905.47;5052237;28;20204;-68
2021/09/12 07:05:57;;;;;;;13.82;11.52;;;;;;;22.12;75.43;100907.56;5030858;28;20060;-67
2021/09/12 07:08:25;;;;;;;14.55;11.02;;;;;;;22.29;75.12;100915.69;5025493;28;20075;-68
2021/09/12 07:10:52;;;;;;;17.58;12.82;;;;;;;22.19;74.69;100915.81;5027617;28;20120;-68
2021/09/12 07:13:19;;;;;;;15.65;11.77;;;;;;;21.54;76.88;100918.84;5038403;28;20159;-67
2021/09/12 07:15:46;;;;;;;14.95;12.02;;;;;;;20.90;81.45;100906.47;5039635;28;20053;-67
2021/09/12 07:18:14;;;;;;;14.55;12.18;;;;;;;20.59;83.01;100916.63;5035057;28;20088;-68
2021/09/12 07:20:41;;;;;;;18.80;12.57;;;;;;;20.25;86.34;100925.16;5028291;28;20064;-69
2021/09/12 07:23:08;;;;;;;18.90;13.18;;;;;;;20.23;87.21;100927.16;5033566;28;20396;-68
2021/09/12 07:25:35;;;;;;;16.17;12.75;;;;;;;20.11;87.63;100925.63;5049066;28;20191;-68
2021/09/12 07:28:03;;;;;;;19.40;13.02;;;;;;;20.02;87.84;100927.34;5046986;28;20142;-68
2021/09/12 07:30:30;;;;;;;16.15;12.63;;;;;;;19.73;90.58;100922.06;5034191;28;20044;-66
2021/09/12 07:32:57;;;;;;;17.77;14.23;;;;;;;19.63;91.90;100931.88;5043332;28;20172;-68
2021/09/12 07:35:24;;;;;;;16.83;12.57;;;;;;;19.90;90.23;100931.16;5042219;28;20064;-67
2021/09/12 07:37:53;;;;;;;21.05;13.80;;;;;;;20.16;89.14;100945.59;5039581;28;20044;-69
2021/09/12 07:40:21;;;;;;;17.02;12.63;;;;;;;20.48;88.03;100939.03;5016831;28;20071;-68
2021/09/12 07:42:49;;;;;;;18.42;13.88;;;;;;;20.54;86.73;100946.50;5006554;28;20108;-68
2021/09/12 07:45:17;;;;;;;16.70;12.60;;;;;;;20.42;86.47;100944.94;5041130;28;20582;-66
2021/09/12 07:47:44;;;;;;;21.02;12.45;;;;;;;20.40;86.56;100945.09;5031073;28;20124;-69
2021/09/12 07:50:15;;;;;;;16.27;13.13;;;;;;;19.89;89.67;100950.84;5029043;28;20525;-68
2021/09/12 07:52:44;;;;;;;14.63;12.98;;;;;;;19.76;92.33;100950.28;5044903;28;20083;-69
2021/09/12 07:55:15;;;;;;;14.68;12.27;;;;;;;19.86;91.93;100952.00;5045966;28;20080;-68
2021/09/12 07:57:42;;;;;;;14.77;12.90;;;;;;;19.99;91.04;100962.34;5046827;28;20451;-66
2021/09/12 08:00:10;;;;;;;15.52;12.43;;;;;;;20.06;90.24;100962.63;5015377;28;20913;-67
2021/09/12 08:02:40;;;;;;;15.48;13.75;;;;;;;19.97;90.49;100956.31;5054271;28;20047;-67
2021/09/12 08:05:08;;;;;;;18.13;13.45;;;;;;;20.10;89.46;100964.88;5022356;28;20420;-68
2021/09/12 08:07:35;;;;;;;18.27;14.45;;;;;;;20.19;89.12;100960.50;5040251;28;20440;-68
2021/09/12 08:10:04;;;;;;;13.65;11.95;;;;;;;20.18;89.34;100965.00;5023366;28;20053;-67
2021/09/12 08:12:31;;;;;;;20.92;13.88;;;;;;;20.36;88.36;100958.91;5031021;28;20427;-67
2021/09/12 08:14:58;;;;;;;15.27;13.15;;;;;;;20.52;86.67;100964.50;5040639;28;20151;-66
2021/09/12 08:17:25;;;;;;;16.52;13.50;;;;;;;20.53;87.82;100965.34;5024493;28;20128;-67
2021/09/12 08:19:53;;;;;;;18.48;13.70;;;;;;;20.66;86.60;100957.81;5036033;28;20537;-67
2021/09/12 08:22:20;;;;;;;14.07;12.63;;;;;;;20.69;86.02;100968.25;5052259;28;20160;-68
2021/09/12 08:24:47;;;;;;;18.75;14.40;;;;;;;20.56;86.79;100968.56;5048851;28;20054;-68
2021/09/12 08:27:14;;;;;;;25.02;17.95;;;;;;;20.54;87.21;100970.56;5039011;28;20165;-67
2021/09/12 08:29:41;;;;;;;18.33;15.07;;;;;;;20.88;85.65;100957.44;5048000;28;20451;-69
2021/09/12 08:32:08;;;;;;;21.42;16.38;;;;;;;20.83;85.16;100964.22;5044589;28;20053;-68
2021/09/12 08:34:36;;;;;;;32.92;16.27;;;;;;;20.76;85.99;100973.81;5044538;28;20053;-68
2021/09/12 08:37:04;;;;;;;19.27;15.70;;;;;;;20.87;85.73;100970.97;5041075;28;20053;-67
2021/09/12 08:39:31;;;;;;;18.08;13.65;;;;;;;20.79;85.64;100970.88;5035120;28;20501;-68
2021/09/12 08:41:58;;;;;;;20.75;15.00;;;;;;;20.50;87.99;100971.84;5011517;28;20128;-67
2021/09/12 08:44:26;;;;;;;19.08;13.82;;;;;;;20.22;88.82;100970.91;5028294;28;20132;-68
2021/09/12 08:46:53;;;;;;;17.35;13.93;;;;;;;20.31;89.00;100985.22;5043427;28;20142;-68
2021/09/12 08:49:20;;;;;;;20.80;14.48;;;;;;;20.31;89.19;100974.53;5037046;28;20747;-67
2021/09/12 08:51:47;;;;;;;19.15;15.13;;;;;;;20.20;90.26;100972.88;5044720;28;20514;-68
2021/09/12 08:54:14;;;;;;;21.25;14.95;;;;;;;20.31;89.71;100975.41;5027862;28;20124;-68
2021/09/12 08:56:42;;;;;;;19.17;13.98;;;;;;;20.36;90.27;100967.78;5055539;28;20672;-67
2021/09/12 08:59:29;;;;;;;20.40;15.65;;;;;;;20.45;89.50;100972.25;5040882;28;20045;-68
2021/09/12 09:02:00;;;;;;;18.02;15.13;;;;;;;20.24;90.27;100972.44;5046978;28;20444;-68
2021/09/12 09:04:29;;;;;;;20.85;15.98;;;;;;;20.59;88.64;100973.63;5024002;28;20694;-68
2021/09/12 09:07:10;;;;;;;15.07;13.27;;;;;;;20.25;88.06;100975.94;5032162;28;20508;-67
2021/09/12 09:09:46;;;;;;;16.30;14.55;;;;;;;20.55;87.36;100972.25;5042303;28;20052;-68
2021/09/12 09:12:20;;;;;;;17.33;13.07;;;;;;;20.79;85.62;100973.53;5046760;28;20227;-68
2021/09/12 09:15:12;;;;;;;16.47;13.77;;;;;;;20.96;84.55;100962.88;5044786;28;20115;-67
2021/09/12 09:17:45;;;;;;;21.02;16.40;;;;;;;21.28;83.80;100969.59;5025070;28;20559;-68
2021/09/12 09:20:18;;;;;;;19.77;13.52;;;;;;;22.02;80.31;100968.47;5026432;28;20069;-67
2021/09/12 09:22:48;;;;;;;18.90;13.02;;;;;;;22.47;77.52;100972.81;5029456;28;20037;-68
2021/09/12 09:25:21;;;;;;;17.13;11.60;;;;;;;22.91;75.19;100962.78;5025460;28;20454;-68
2021/09/12 09:28:09;;;;;;;14.88;10.80;;;;;;;23.19;73.28;100966.09;5042445;28;20486;-68
2021/09/12 09:31:02;;;;;;;20.08;17.17;;;;;;;22.94;73.70;100957.09;5018782;28;20071;-67
2021/09/12 09:33:29;;;;;;;28.55;19.35;;;;;;;23.27;72.64;100965.25;5028706;28;20048;-67
2021/09/12 09:35:59;;;;;;;14.70;13.15;;;;;;;23.20;71.71;100967.75;5047313;28;20121;-68
2021/09/12 09:38:32;;;;;;;16.58;12.85;;;;;;;22.52;74.52;100966.97;5029400;28;20815;-68
2021/09/12 09:41:11;;;;;;;16.15;12.77;;;;;;;21.92;78.13;100968.53;5017936;28;20045;-68
2021/09/12 09:43:44;;;;;;;15.05;12.60;;;;;;;22.14;78.75;100963.69;5025922;28;20139;-68
2021/09/12 09:46:35;;;;;;;16.45;12.68;;;;;;;22.84;73.59;100958.22;5024615;28;20083;-68
2021/09/12 09:49:27;;;;;;;14.38;12.88;;;;;;;23.21;71.91;100956.00;5050201;28;20077;-69
2021/09/12 09:52:01;;;;;;;15.52;12.98;;;;;;;21.95;76.78;100956.66;5024187;28;20133;-68
2021/09/12 09:54:30;;;;;;;15.15;13.50;;;;;;;22.70;74.37;100948.94;5022211;28;20086;-68
2021/09/12 09:56:58;;;;;;;18.88;13.23;;;;;;;22.50;74.66;100948.31;5047953;28;20479;-69
2021/09/12 09:59:26;;;;;;;14.60;12.48;;;;;;;22.49;74.02;100952.03;5040957;28;20268;-68
2021/09/12 10:01:55;;;;;;;14.32;11.63;;;;;;;22.98;73.24;100941.50;5040476;28;20047;-69
2021/09/12 10:04:26;;;;;;;17.25;12.35;;;;;;;23.29;70.88;100947.13;5041235;28;20064;-68
2021/09/12 10:06:54;;;;;;;13.52;11.57;;;;;;;22.45;73.25;100943.44;5046927;28;20152;-69
2021/09/12 10:09:22;;;;;;;12.82;10.77;;;;;;;22.87;73.55;100931.88;5044749;28;20143;-68
2021/09/12 10:11:52;;;;;;;12.60;10.55;;;;;;;23.26;71.22;100936.72;5022949;28;20144;-70
2021/09/12 10:14:27;;;;;;;15.10;11.18;;;;;;;23.22;70.44;100936.19;5027541;28;20708;-68
2021/09/12 10:16:54;;;;;;;17.95;13.70;;;;;;;23.46;69.88;100937.22;5056691;28;20061;-68
2021/09/12 10:19:38;;;;;;;16.02;11.18;;;;;;;23.65;69.19;100936.94;5048375;28;20490;-67
2021/09/12 10:22:19;;;;;;;16.63;10.82;;;;;;;23.79;68.57;100942.66;5043772;28;20035;-69
2021/09/12 10:25:01;;;;;;;12.27;10.15;;;;;;;23.57;66.52;100936.06;5065014;28;20378;-68
2021/09/12 10:27:38;;;;;;;13.00;10.45;;;;;;;22.99;69.69;100933.28;5047491;28;20055;-68
2021/09/12 10:30:27;;;;;;;14.18;10.05;;;;;;;23.42;69.19;100933.22;5029998;28;20037;-68
2021/09/12 10:33:11;;;;;;;13.18;9.27;;;;;;;23.89;67.03;100936.09;5007237;28;20136;-69
2021/09/12 10:35:42;;;;;;;14.48;11.50;;;;;;;23.50;68.75;100934.06;5045586;28;20120;-69
2021/09/12 10:38:11;;;;;;;11.25;9.98;;;;;;;23.95;67.15;100929.19;5047144;28;20132;-68
2021/09/12 10:40:48;;;;;;;10.95;9.05;;;;;;;24.21;67.11;100945.97;5028654;28;20379;-66
2021/09/12 10:43:24;;;;;;;11.60;9.32;;;;;;;24.10;65.54;100940.13;5034863;28;20045;-66
2021/09/12 10:46:06;;;;;;;10.27;8.98;;;;;;;24.08;66.03;100934.03;5026398;28;20045;-67
2021/09/12 10:48:44;;;;;;;10.15;7.80;;;;;;;24.50;63.97;100947.28;5018904;28;20123;-68
2021/09/12 10:51:12;;;;;;;10.45;8.05;;;;;;;24.23;64.40;100941.25;5040280;28;20128;-68
2021/09/12 10:53:45;;;;;;;11.68;9.63;;;;;;;23.67;66.01;100942.16;5039520;28;20128;-68
2021/09/12 10:56:16;;;;;;;9.65;8.23;;;;;;;23.36;67.87;100933.84;5038774;28;20059;-70
2021/09/12 10:58:48;;;;;;;11.07;8.38;;;;;;;23.46;67.14;100937.22;5025520;28;20068;-67
2021/09/12 11:01:34;;;;;;;10.65;9.55;;;;;;;22.37;68.07;100934.50;5046075;22;20320;-69
2021/09/12 11:04:02;;;;;;;11.35;8.65;;;;;;;22.88;68.84;100932.72;5022316;28;20049;-69
2021/09/12 11:06:31;;;;;;;11.10;8.60;;;;;;;22.91;69.03;100935.94;5005874;28;20048;-70
2021/09/12 11:08:59;;;;;;;8.73;7.82;;;;;;;23.78;66.17;100943.69;5008728;28;20081;-69
2021/09/12 11:11:27;;;;;;;11.05;8.15;;;;;;;23.82;65.56;100945.88;5009144;28;20057;-68
2021/09/12 11:13:56;;;;;;;8.85;7.63;;;;;;;23.93;64.40;100942.81;5024490;28;20109;-69
2021/09/12 11:16:25;;;;;;;10.10;8.63;;;;;;;23.42;67.20;100944.81;5004444;28;20227;-69